sensor_id;sensor_type;location;lat;lon;timestamp;temperature;humidity
2130;DHT22;1071;52.544;13.374;2022-12-18T00:00:06;-1.10;99.90
2130;DHT22;1071;52.544;13.374;2022-12-18T00:02:33;-1.10;99.90
2130;DHT22;1071;52.544;13.374;2022-12-18T00:05:00;-1.10;99.90
2130;DHT22;1071;52.544;13.374;2022-12-18T00:07:27;-1.10;99.90
2130;DHT22;1071;52.544;13.374;2022-12-18T00:09:54;-1.20;99.90
2130;DHT22;1071;52.544;13.374;2022-12-18T00:12:21;-1.30;99.90
2130;DHT22;1071;52.544;13.374;2022-12-18T00:14:48;-1.20;99.90
2130;DHT22;1071;52.544;13.374;2022-12-18T00:17:17;-1.20;99.90
2130;DHT22;1071;52.544;13.374;2022-12-18T00:19:44;-1.30;99.90
2130;DHT22;1071;52.544;13.374;2022-12-18T00:22:11;-1.30;99.90
2130;DHT22;1071;52.544;13.374;2022-12-18T00:24:38;-1.30;99.90
2130;DHT22;1071;52.544;13.374;2022-12-18T00:27:10;-1.30;99.90
2130;DHT22;1071;52.544;13.374;2022-12-18T00:29:39;-1.30;99.90
2130;DHT22;1071;52.544;13.374;2022-12-18T00:32:07;-1.30;99.90
2130;DHT22;1071;52.544;13.374;2022-12-18T00:34:36;-1.30;99.90
2130;DHT22;1071;52.544;13.374;2022-12-18T00:37:03;-1.30;99.90
2130;DHT22;1071;52.544;13.374;2022-12-18T00:39:32;-1.40;99.90
2130;DHT22;1071;52.544;13.374;2022-12-18T00:41:59;-1.40;99.90
2130;DHT22;1071;52.544;13.374;2022-12-18T00:44:43;-1.50;99.90
2130;DHT22;1071;52.544;13.374;2022-12-18T00:47:10;-1.60;99.90
2130;DHT22;1071;52.544;13.374;2022-12-18T00:49:38;-1.70;99.90
2130;DHT22;1071;52.544;13.374;2022-12-18T00:52:05;-1.70;99.90
2130;DHT22;1071;52.544;13.374;2022-12-18T00:54:32;-1.70;99.90
2130;DHT22;1071;52.544;13.374;2022-12-18T00:57:00;-1.70;99.90
2130;DHT22;1071;52.544;13.374;2022-12-18T00:59:28;-1.60;99.90
2130;DHT22;1071;52.544;13.374;2022-12-18T01:01:55;-1.50;99.90
2130;DHT22;1071;52.544;13.374;2022-12-18T01:04:22;-1.50;99.90
2130;DHT22;1071;52.544;13.374;2022-12-18T01:06:51;-1.50;99.90
2130;DHT22;1071;52.544;13.374;2022-12-18T01:09:18;-1.40;99.90
2130;DHT22;1071;52.544;13.374;2022-12-18T01:11:49;-1.50;99.90
2130;DHT22;1071;52.544;13.374;2022-12-18T01:14:16;-1.50;99.90
2130;DHT22;1071;52.544;13.374;2022-12-18T01:16:43;-1.50;99.90
2130;DHT22;1071;52.544;13.374;2022-12-18T01:19:10;-1.50;99.90
2130;DHT22;1071;52.544;13.374;2022-12-18T01:21:37;-1.50;99.90
2130;DHT22;1071;52.544;13.374;2022-12-18T01:24:06;-1.50;99.90
2130;DHT22;1071;52.544;13.374;2022-12-18T01:26:33;-1.50;99.90
2130;DHT22;1071;52.544;13.374;2022-12-18T01:29:00;-1.50;99.90
2130;DHT22;1071;52.544;13.374;2022-12-18T01:31:33;-1.50;99.90
2130;DHT22;1071;52.544;13.374;2022-12-18T01:34:01;-1.50;99.90
2130;DHT22;1071;52.544;13.374;2022-12-18T01:36:31;-1.50;99.90
2130;DHT22;1071;52.544;13.374;2022-12-18T01:38:59;-1.50;99.90
2130;DHT22;1071;52.544;13.374;2022-12-18T01:41:29;-1.50;99.90
2130;DHT22;1071;52.544;13.374;2022-12-18T01:44:54;-1.50;99.90
2130;DHT22;1071;52.544;13.374;2022-12-18T01:47:25;-1.60;99.90
2130;DHT22;1071;52.544;13.374;2022-12-18T01:49:53;-1.60;99.90
2130;DHT22;1071;52.544;13.374;2022-12-18T01:52:22;-1.70;99.90
2130;DHT22;1071;52.544;13.374;2022-12-18T01:54:50;-1.70;99.90
2130;DHT22;1071;52.544;13.374;2022-12-18T01:57:20;-1.70;99.90
2130;DHT22;1071;52.544;13.374;2022-12-18T01:59:50;-1.70;99.90
2130;DHT22;1071;52.544;13.374;2022-12-18T02:02:19;-1.80;99.90
2130;DHT22;1071;52.544;13.374;2022-12-18T02:04:46;-1.80;99.90
2130;DHT22;1071;52.544;13.374;2022-12-18T02:07:19;-1.80;99.90
2130;DHT22;1071;52.544;13.374;2022-12-18T02:09:49;-1.70;99.90
2130;DHT22;1071;52.544;13.374;2022-12-18T02:12:21;-1.70;99.90
2130;DHT22;1071;52.544;13.374;2022-12-18T02:14:55;-1.70;99.90
2130;DHT22;1071;52.544;13.374;2022-12-18T02:17:29;-1.70;99.90
2130;DHT22;1071;52.544;13.374;2022-12-18T02:20:08;-1.80;99.90
2130;DHT22;1071;52.544;13.374;2022-12-18T02:22:44;-1.80;99.90
2130;DHT22;1071;52.544;13.374;2022-12-18T02:25:26;-1.80;99.90
2130;DHT22;1071;52.544;13.374;2022-12-18T02:27:59;-1.80;99.90
2130;DHT22;1071;52.544;13.374;2022-12-18T02:30:30;-1.80;99.90
2130;DHT22;1071;52.544;13.374;2022-12-18T02:32:59;-1.80;99.90
2130;DHT22;1071;52.544;13.374;2022-12-18T02:35:29;-1.80;99.90
2130;DHT22;1071;52.544;13.374;2022-12-18T02:37:58;-1.90;99.90
2130;DHT22;1071;52.544;13.374;2022-12-18T02:40:27;-1.90;99.90
2130;DHT22;1071;52.544;13.374;2022-12-18T02:42:55;-1.90;99.90
2130;DHT22;1071;52.544;13.374;2022-12-18T02:45:23;-1.90;99.90
2130;DHT22;1071;52.544;13.374;2022-12-18T02:47:50;-1.90;99.90
2130;DHT22;1071;52.544;13.374;2022-12-18T02:50:22;-1.90;99.90
2130;DHT22;1071;52.544;13.374;2022-12-18T02:53:01;-1.90;99.90
2130;DHT22;1071;52.544;13.374;2022-12-18T02:55:39;-1.90;99.90
2130;DHT22;1071;52.544;13.374;2022-12-18T02:58:15;-1.90;99.90
2130;DHT22;1071;52.544;13.374;2022-12-18T03:00:51;-1.90;99.90
2130;DHT22;1071;52.544;13.374;2022-12-18T03:03:24;-1.90;99.90
2130;DHT22;1071;52.544;13.374;2022-12-18T03:05:57;-1.80;99.90
2130;DHT22;1071;52.544;13.374;2022-12-18T03:08:28;-1.70;99.90
2130;DHT22;1071;52.544;13.374;2022-12-18T03:11:01;-1.70;99.90
2130;DHT22;1071;52.544;13.374;2022-12-18T03:13:34;-1.60;99.90
2130;DHT22;1071;52.544;13.374;2022-12-18T03:16:06;-1.60;99.90
2130;DHT22;1071;52.544;13.374;2022-12-18T03:18:36;-1.60;99.90
2130;DHT22;1071;52.544;13.374;2022-12-18T03:21:06;-1.60;99.90
2130;DHT22;1071;52.544;13.374;2022-12-18T03:23:38;-1.50;99.90
2130;DHT22;1071;52.544;13.374;2022-12-18T03:26:10;-1.40;99.90
2130;DHT22;1071;52.544;13.374;2022-12-18T03:28:42;-1.40;99.90
2130;DHT22;1071;52.544;13.374;2022-12-18T03:31:13;-1.40;99.90
2130;DHT22;1071;52.544;13.374;2022-12-18T03:33:45;-1.30;99.90
2130;DHT22;1071;52.544;13.374;2022-12-18T03:36:13;-1.30;99.90
2130;DHT22;1071;52.544;13.374;2022-12-18T03:38:40;-1.30;99.90
2130;DHT22;1071;52.544;13.374;2022-12-18T03:41:15;-1.30;99.90
2130;DHT22;1071;52.544;13.374;2022-12-18T03:43:51;-1.20;99.90
2130;DHT22;1071;52.544;13.374;2022-12-18T03:46:26;-1.20;99.90
2130;DHT22;1071;52.544;13.374;2022-12-18T03:49:00;-1.20;99.90
2130;DHT22;1071;52.544;13.374;2022-12-18T03:51:36;-1.30;99.90
2130;DHT22;1071;52.544;13.374;2022-12-18T03:54:05;-1.30;99.90
2130;DHT22;1071;52.544;13.374;2022-12-18T03:56:36;-1.40;99.90
2130;DHT22;1071;52.544;13.374;2022-12-18T03:59:08;-1.30;99.90
2130;DHT22;1071;52.544;13.374;2022-12-18T04:01:40;-1.40;99.90
2130;DHT22;1071;52.544;13.374;2022-12-18T04:04:09;-1.40;99.90
2130;DHT22;1071;52.544;13.374;2022-12-18T04:07:04;-1.40;99.90
2130;DHT22;1071;52.544;13.374;2022-12-18T04:09:33;-1.40;99.90
2130;DHT22;1071;52.544;13.374;2022-12-18T04:12:00;-1.50;99.90
2130;DHT22;1071;52.544;13.374;2022-12-18T04:14:28;-1.50;99.90
2130;DHT22;1071;52.544;13.374;2022-12-18T04:16:56;-1.60;99.90
2130;DHT22;1071;52.544;13.374;2022-12-18T04:19:23;-1.70;99.90
2130;DHT22;1071;52.544;13.374;2022-12-18T04:21:50;-1.70;99.90
2130;DHT22;1071;52.544;13.374;2022-12-18T04:24:17;-1.70;99.90
2130;DHT22;1071;52.544;13.374;2022-12-18T04:26:44;-1.70;99.90
2130;DHT22;1071;52.544;13.374;2022-12-18T04:29:11;-1.70;99.90
2130;DHT22;1071;52.544;13.374;2022-12-18T04:31:38;-1.60;99.90
2130;DHT22;1071;52.544;13.374;2022-12-18T04:34:07;-1.70;99.90
2130;DHT22;1071;52.544;13.374;2022-12-18T04:36:34;-1.70;99.90
2130;DHT22;1071;52.544;13.374;2022-12-18T04:39:01;-1.80;99.90
2130;DHT22;1071;52.544;13.374;2022-12-18T04:41:31;-1.70;99.90
2130;DHT22;1071;52.544;13.374;2022-12-18T04:43:58;-1.70;99.90
2130;DHT22;1071;52.544;13.374;2022-12-18T04:46:25;-1.70;99.90
2130;DHT22;1071;52.544;13.374;2022-12-18T04:48:52;-1.70;99.90
2130;DHT22;1071;52.544;13.374;2022-12-18T04:51:20;-1.70;99.90
2130;DHT22;1071;52.544;13.374;2022-12-18T04:53:47;-1.70;99.90
2130;DHT22;1071;52.544;13.374;2022-12-18T04:56:15;-1.80;99.90
2130;DHT22;1071;52.544;13.374;2022-12-18T04:58:43;-1.80;99.90
2130;DHT22;1071;52.544;13.374;2022-12-18T05:01:12;-1.80;99.90
2130;DHT22;1071;52.544;13.374;2022-12-18T05:03:39;-1.80;99.90
2130;DHT22;1071;52.544;13.374;2022-12-18T05:06:07;-1.90;99.90
2130;DHT22;1071;52.544;13.374;2022-12-18T05:08:35;-2.00;99.90
2130;DHT22;1071;52.544;13.374;2022-12-18T05:11:04;-2.00;99.90
2130;DHT22;1071;52.544;13.374;2022-12-18T05:13:32;-2.00;99.90
2130;DHT22;1071;52.544;13.374;2022-12-18T05:15:59;-2.00;99.90
2130;DHT22;1071;52.544;13.374;2022-12-18T05:18:27;-2.10;99.90
2130;DHT22;1071;52.544;13.374;2022-12-18T05:20:55;-2.10;99.90
2130;DHT22;1071;52.544;13.374;2022-12-18T05:23:23;-2.20;99.90
2130;DHT22;1071;52.544;13.374;2022-12-18T05:25:53;-2.20;99.90
2130;DHT22;1071;52.544;13.374;2022-12-18T05:28:21;-2.30;99.90
2130;DHT22;1071;52.544;13.374;2022-12-18T05:30:52;-2.30;99.90
2130;DHT22;1071;52.544;13.374;2022-12-18T05:33:20;-2.30;99.90
2130;DHT22;1071;52.544;13.374;2022-12-18T05:35:50;-2.30;99.90
2130;DHT22;1071;52.544;13.374;2022-12-18T05:38:23;-2.30;99.90
2130;DHT22;1071;52.544;13.374;2022-12-18T05:40:55;-2.20;99.90
2130;DHT22;1071;52.544;13.374;2022-12-18T05:43:23;-2.10;99.90
2130;DHT22;1071;52.544;13.374;2022-12-18T05:45:51;-2.20;99.90
2130;DHT22;1071;52.544;13.374;2022-12-18T05:48:18;-2.20;99.90
2130;DHT22;1071;52.544;13.374;2022-12-18T05:50:47;-2.20;99.90
2130;DHT22;1071;52.544;13.374;2022-12-18T05:53:16;-2.10;99.90
2130;DHT22;1071;52.544;13.374;2022-12-18T05:55:44;-2.10;99.90
2130;DHT22;1071;52.544;13.374;2022-12-18T05:58:13;-2.00;99.90
2130;DHT22;1071;52.544;13.374;2022-12-18T06:00:44;-2.00;99.90
2130;DHT22;1071;52.544;13.374;2022-12-18T06:03:12;-2.00;99.90
2130;DHT22;1071;52.544;13.374;2022-12-18T06:05:41;-1.90;99.90
2130;DHT22;1071;52.544;13.374;2022-12-18T06:08:09;-1.90;99.90
2130;DHT22;1071;52.544;13.374;2022-12-18T06:10:36;-1.90;99.90
2130;DHT22;1071;52.544;13.374;2022-12-18T06:13:04;-1.90;99.90
2130;DHT22;1071;52.544;13.374;2022-12-18T06:15:35;-2.00;99.90
2130;DHT22;1071;52.544;13.374;2022-12-18T06:18:03;-2.00;99.90
2130;DHT22;1071;52.544;13.374;2022-12-18T06:20:30;-2.00;99.90
2130;DHT22;1071;52.544;13.374;2022-12-18T06:22:57;-2.00;99.90
2130;DHT22;1071;52.544;13.374;2022-12-18T06:25:25;-2.00;99.90
2130;DHT22;1071;52.544;13.374;2022-12-18T06:27:52;-2.00;99.90
2130;DHT22;1071;52.544;13.374;2022-12-18T06:30:19;-2.10;99.90
2130;DHT22;1071;52.544;13.374;2022-12-18T06:32:47;-2.10;99.90
2130;DHT22;1071;52.544;13.374;2022-12-18T06:35:15;-2.00;99.90
2130;DHT22;1071;52.544;13.374;2022-12-18T06:37:47;-2.00;99.90
2130;DHT22;1071;52.544;13.374;2022-12-18T06:40:14;-2.00;99.90
2130;DHT22;1071;52.544;13.374;2022-12-18T06:42:42;-2.00;99.90
2130;DHT22;1071;52.544;13.374;2022-12-18T06:45:09;-2.00;99.90
2130;DHT22;1071;52.544;13.374;2022-12-18T06:47:40;-2.00;99.90
2130;DHT22;1071;52.544;13.374;2022-12-18T06:50:09;-1.90;99.90
2130;DHT22;1071;52.544;13.374;2022-12-18T06:52:36;-2.00;99.90
2130;DHT22;1071;52.544;13.374;2022-12-18T06:55:05;-1.90;99.90
2130;DHT22;1071;52.544;13.374;2022-12-18T06:57:35;-2.00;99.90
2130;DHT22;1071;52.544;13.374;2022-12-18T07:00:04;-2.00;99.90
2130;DHT22;1071;52.544;13.374;2022-12-18T07:02:31;-1.90;99.90
2130;DHT22;1071;52.544;13.374;2022-12-18T07:04:59;-1.90;99.90
2130;DHT22;1071;52.544;13.374;2022-12-18T07:07:27;-1.90;99.90
2130;DHT22;1071;52.544;13.374;2022-12-18T07:09:54;-1.80;99.90
2130;DHT22;1071;52.544;13.374;2022-12-18T07:12:21;-1.80;99.90
2130;DHT22;1071;52.544;13.374;2022-12-18T07:14:48;-1.70;99.90
2130;DHT22;1071;52.544;13.374;2022-12-18T07:17:15;-1.80;99.90
2130;DHT22;1071;52.544;13.374;2022-12-18T07:19:44;-1.80;99.90
2130;DHT22;1071;52.544;13.374;2022-12-18T07:22:11;-1.80;99.90
2130;DHT22;1071;52.544;13.374;2022-12-18T07:24:39;-1.80;99.90
2130;DHT22;1071;52.544;13.374;2022-12-18T07:27:07;-1.80;99.90
2130;DHT22;1071;52.544;13.374;2022-12-18T07:29:34;-1.90;99.90
2130;DHT22;1071;52.544;13.374;2022-12-18T07:32:01;-1.90;99.90
2130;DHT22;1071;52.544;13.374;2022-12-18T07:34:29;-1.90;99.90
2130;DHT22;1071;52.544;13.374;2022-12-18T07:36:55;-1.90;99.90
2130;DHT22;1071;52.544;13.374;2022-12-18T07:39:22;-1.90;99.90
2130;DHT22;1071;52.544;13.374;2022-12-18T07:41:52;-1.90;99.90
2130;DHT22;1071;52.544;13.374;2022-12-18T07:44:32;-1.80;99.90
2130;DHT22;1071;52.544;13.374;2022-12-18T07:46:59;-1.80;99.90
2130;DHT22;1071;52.544;13.374;2022-12-18T07:49:27;-1.80;99.90
2130;DHT22;1071;52.544;13.374;2022-12-18T07:51:54;-1.70;99.90
2130;DHT22;1071;52.544;13.374;2022-12-18T07:54:22;-1.60;99.90
2130;DHT22;1071;52.544;13.374;2022-12-18T07:56:49;-1.60;99.90
2130;DHT22;1071;52.544;13.374;2022-12-18T07:59:17;-1.60;99.90
2130;DHT22;1071;52.544;13.374;2022-12-18T08:01:44;-1.70;99.90
2130;DHT22;1071;52.544;13.374;2022-12-18T08:04:15;-1.80;99.90
2130;DHT22;1071;52.544;13.374;2022-12-18T08:06:44;-1.70;99.90
2130;DHT22;1071;52.544;13.374;2022-12-18T08:09:11;-1.80;99.90
2130;DHT22;1071;52.544;13.374;2022-12-18T08:11:38;-1.70;99.90
2130;DHT22;1071;52.544;13.374;2022-12-18T08:14:05;-1.80;99.90
2130;DHT22;1071;52.544;13.374;2022-12-18T08:16:33;-1.80;99.90
2130;DHT22;1071;52.544;13.374;2022-12-18T08:19:00;-1.80;99.90
2130;DHT22;1071;52.544;13.374;2022-12-18T08:21:29;-1.80;99.90
2130;DHT22;1071;52.544;13.374;2022-12-18T08:23:58;-1.80;99.90
2130;DHT22;1071;52.544;13.374;2022-12-18T08:26:27;-1.80;99.90
2130;DHT22;1071;52.544;13.374;2022-12-18T08:29:02;-1.80;99.90
2130;DHT22;1071;52.544;13.374;2022-12-18T08:31:30;-1.70;99.90
2130;DHT22;1071;52.544;13.374;2022-12-18T08:33:59;-1.70;99.90
2130;DHT22;1071;52.544;13.374;2022-12-18T08:36:26;-1.70;99.90
2130;DHT22;1071;52.544;13.374;2022-12-18T08:38:54;-1.90;99.90
2130;DHT22;1071;52.544;13.374;2022-12-18T08:41:21;-1.90;99.90
2130;DHT22;1071;52.544;13.374;2022-12-18T08:43:48;-1.90;99.90
2130;DHT22;1071;52.544;13.374;2022-12-18T08:46:35;-1.80;99.90
2130;DHT22;1071;52.544;13.374;2022-12-18T08:49:05;-1.80;99.90
2130;DHT22;1071;52.544;13.374;2022-12-18T08:51:33;-1.70;99.90
2130;DHT22;1071;52.544;13.374;2022-12-18T08:54:00;-1.70;99.90
2130;DHT22;1071;52.544;13.374;2022-12-18T08:56:30;-1.70;99.90
2130;DHT22;1071;52.544;13.374;2022-12-18T08:58:57;-1.60;99.90
2130;DHT22;1071;52.544;13.374;2022-12-18T09:01:27;-1.60;99.90
2130;DHT22;1071;52.544;13.374;2022-12-18T09:03:54;-1.60;99.90
2130;DHT22;1071;52.544;13.374;2022-12-18T09:06:24;-1.60;99.90
2130;DHT22;1071;52.544;13.374;2022-12-18T09:08:51;-1.60;99.90
2130;DHT22;1071;52.544;13.374;2022-12-18T09:11:22;-1.50;99.90
2130;DHT22;1071;52.544;13.374;2022-12-18T09:13:50;-1.50;99.90
2130;DHT22;1071;52.544;13.374;2022-12-18T09:16:18;-1.50;99.90
2130;DHT22;1071;52.544;13.374;2022-12-18T09:18:45;-1.50;99.90
2130;DHT22;1071;52.544;13.374;2022-12-18T09:21:14;-1.50;99.90
2130;DHT22;1071;52.544;13.374;2022-12-18T09:23:43;-1.40;99.90
2130;DHT22;1071;52.544;13.374;2022-12-18T09:26:10;-1.40;99.90
2130;DHT22;1071;52.544;13.374;2022-12-18T09:28:38;-1.40;99.90
2130;DHT22;1071;52.544;13.374;2022-12-18T09:31:10;-1.30;99.90
2130;DHT22;1071;52.544;13.374;2022-12-18T09:33:39;-1.20;99.90
2130;DHT22;1071;52.544;13.374;2022-12-18T09:36:08;-1.30;99.90
2130;DHT22;1071;52.544;13.374;2022-12-18T09:38:37;-1.20;99.90
2130;DHT22;1071;52.544;13.374;2022-12-18T09:41:32;-1.30;99.90
2130;DHT22;1071;52.544;13.374;2022-12-18T09:44:03;-1.20;99.90
2130;DHT22;1071;52.544;13.374;2022-12-18T09:46:34;-1.20;99.90
2130;DHT22;1071;52.544;13.374;2022-12-18T09:49:09;-1.30;99.90
2130;DHT22;1071;52.544;13.374;2022-12-18T09:51:42;-1.30;99.90
2130;DHT22;1071;52.544;13.374;2022-12-18T09:54:14;-1.20;99.90
2130;DHT22;1071;52.544;13.374;2022-12-18T09:56:44;-1.20;99.90
2130;DHT22;1071;52.544;13.374;2022-12-18T09:59:20;-1.20;99.90
2130;DHT22;1071;52.544;13.374;2022-12-18T10:01:47;-1.10;99.90
2130;DHT22;1071;52.544;13.374;2022-12-18T10:04:14;-1.10;99.90
2130;DHT22;1071;52.544;13.374;2022-12-18T10:06:45;-1.10;99.90
2130;DHT22;1071;52.544;13.374;2022-12-18T10:09:23;-1.20;99.90
2130;DHT22;1071;52.544;13.374;2022-12-18T10:12:01;-1.30;99.90
2130;DHT22;1071;52.544;13.374;2022-12-18T10:14:35;-1.20;99.90
2130;DHT22;1071;52.544;13.374;2022-12-18T10:17:13;-1.10;99.90
2130;DHT22;1071;52.544;13.374;2022-12-18T10:19:45;-1.10;99.90
2130;DHT22;1071;52.544;13.374;2022-12-18T10:22:37;-1.10;99.90
2130;DHT22;1071;52.544;13.374;2022-12-18T10:25:17;-1.00;99.90
2130;DHT22;1071;52.544;13.374;2022-12-18T10:27:46;-0.90;99.90
2130;DHT22;1071;52.544;13.374;2022-12-18T10:30:21;-1.00;99.90
2130;DHT22;1071;52.544;13.374;2022-12-18T10:32:49;-0.90;99.90
2130;DHT22;1071;52.544;13.374;2022-12-18T10:35:21;-0.90;99.90
2130;DHT22;1071;52.544;13.374;2022-12-18T10:38:03;-0.80;99.90
2130;DHT22;1071;52.544;13.374;2022-12-18T10:40:33;-0.80;99.90
2130;DHT22;1071;52.544;13.374;2022-12-18T10:43:19;-0.70;99.90
2130;DHT22;1071;52.544;13.374;2022-12-18T10:48:50;-0.60;99.90
2130;DHT22;1071;52.544;13.374;2022-12-18T10:51:23;-0.50;99.90
2130;DHT22;1071;52.544;13.374;2022-12-18T10:53:54;-0.50;99.90
2130;DHT22;1071;52.544;13.374;2022-12-18T10:56:24;-0.70;99.90
2130;DHT22;1071;52.544;13.374;2022-12-18T11:02:43;-0.70;99.90
2130;DHT22;1071;52.544;13.374;2022-12-18T11:05:27;-0.70;99.90
2130;DHT22;1071;52.544;13.374;2022-12-18T11:07:55;-0.70;99.90
2130;DHT22;1071;52.544;13.374;2022-12-18T11:10:26;-0.70;99.90
2130;DHT22;1071;52.544;13.374;2022-12-18T11:13:09;-0.60;99.90
2130;DHT22;1071;52.544;13.374;2022-12-18T11:15:37;-0.60;99.90
2130;DHT22;1071;52.544;13.374;2022-12-18T11:18:16;-0.50;99.90
2130;DHT22;1071;52.544;13.374;2022-12-18T11:20:51;-0.50;99.90
2130;DHT22;1071;52.544;13.374;2022-12-18T11:23:19;-0.40;99.90
2130;DHT22;1071;52.544;13.374;2022-12-18T11:25:55;-0.40;99.90
2130;DHT22;1071;52.544;13.374;2022-12-18T11:28:28;-0.40;99.90
2130;DHT22;1071;52.544;13.374;2022-12-18T11:31:12;-0.30;99.90
2130;DHT22;1071;52.544;13.374;2022-12-18T11:33:46;-0.30;99.90
2130;DHT22;1071;52.544;13.374;2022-12-18T11:36:14;-0.20;99.90
2130;DHT22;1071;52.544;13.374;2022-12-18T11:38:44;-0.20;99.90
2130;DHT22;1071;52.544;13.374;2022-12-18T11:41:25;-0.10;99.90
2130;DHT22;1071;52.544;13.374;2022-12-18T11:44:18;-0.10;99.90
2130;DHT22;1071;52.544;13.374;2022-12-18T11:46:51;0.00;99.90
2130;DHT22;1071;52.544;13.374;2022-12-18T11:49:24;0.00;99.90
2130;DHT22;1071;52.544;13.374;2022-12-18T11:51:55;0.00;99.90
2130;DHT22;1071;52.544;13.374;2022-12-18T11:54:25;0.10;99.90
2130;DHT22;1071;52.544;13.374;2022-12-18T11:56:58;0.00;99.90
2130;DHT22;1071;52.544;13.374;2022-12-18T11:59:35;0.00;99.90
2130;DHT22;1071;52.544;13.374;2022-12-18T12:02:21;-0.10;99.90
2130;DHT22;1071;52.544;13.374;2022-12-18T12:07:46;-0.20;99.90
2130;DHT22;1071;52.544;13.374;2022-12-18T12:10:29;-0.10;99.90
2130;DHT22;1071;52.544;13.374;2022-12-18T12:13:13;-0.10;99.90
2130;DHT22;1071;52.544;13.374;2022-12-18T12:15:47;-0.20;99.90
2130;DHT22;1071;52.544;13.374;2022-12-18T12:18:25;-0.20;99.90
2130;DHT22;1071;52.544;13.374;2022-12-18T12:21:04;-0.20;99.90
2130;DHT22;1071;52.544;13.374;2022-12-18T12:23:40;-0.20;99.90
2130;DHT22;1071;52.544;13.374;2022-12-18T12:26:12;-0.20;99.90
2130;DHT22;1071;52.544;13.374;2022-12-18T12:28:55;-0.20;99.90
2130;DHT22;1071;52.544;13.374;2022-12-18T12:31:43;-0.20;99.90
2130;DHT22;1071;52.544;13.374;2022-12-18T12:34:18;-0.20;99.90
2130;DHT22;1071;52.544;13.374;2022-12-18T12:37:01;-0.20;99.90
2130;DHT22;1071;52.544;13.374;2022-12-18T12:39:34;-0.20;99.90
2130;DHT22;1071;52.544;13.374;2022-12-18T12:42:05;-0.10;99.90
2130;DHT22;1071;52.544;13.374;2022-12-18T12:44:53;-0.10;99.90
2130;DHT22;1071;52.544;13.374;2022-12-18T12:47:25;0.00;99.90
2130;DHT22;1071;52.544;13.374;2022-12-18T12:49:53;0.00;99.90
2130;DHT22;1071;52.544;13.374;2022-12-18T12:52:28;0.00;99.90
2130;DHT22;1071;52.544;13.374;2022-12-18T12:54:58;0.00;99.90
2130;DHT22;1071;52.544;13.374;2022-12-18T12:57:31;0.10;99.90
2130;DHT22;1071;52.544;13.374;2022-12-18T13:00:04;0.20;99.90
2130;DHT22;1071;52.544;13.374;2022-12-18T13:03:01;0.20;99.90
2130;DHT22;1071;52.544;13.374;2022-12-18T13:05:34;0.00;99.90
2130;DHT22;1071;52.544;13.374;2022-12-18T13:08:09;0.00;99.90
2130;DHT22;1071;52.544;13.374;2022-12-18T13:10:39;0.00;99.90
2130;DHT22;1071;52.544;13.374;2022-12-18T13:13:08;0.10;99.90
2130;DHT22;1071;52.544;13.374;2022-12-18T13:15:39;0.10;99.90
2130;DHT22;1071;52.544;13.374;2022-12-18T13:18:19;0.10;99.90
2130;DHT22;1071;52.544;13.374;2022-12-18T13:20:49;0.10;99.90
2130;DHT22;1071;52.544;13.374;2022-12-18T13:23:29;0.20;99.90
2130;DHT22;1071;52.544;13.374;2022-12-18T13:25:57;0.20;99.90
2130;DHT22;1071;52.544;13.374;2022-12-18T13:28:51;0.20;99.90
2130;DHT22;1071;52.544;13.374;2022-12-18T13:34:44;-0.10;99.90
2130;DHT22;1071;52.544;13.374;2022-12-18T13:37:42;-0.10;99.90
2130;DHT22;1071;52.544;13.374;2022-12-18T13:43:32;-0.10;99.90
2130;DHT22;1071;52.544;13.374;2022-12-18T13:46:06;0.00;99.90
2130;DHT22;1071;52.544;13.374;2022-12-18T13:49:00;-0.10;99.90
2130;DHT22;1071;52.544;13.374;2022-12-18T13:51:32;-0.20;99.90
2130;DHT22;1071;52.544;13.374;2022-12-18T13:54:02;-0.10;99.90
2130;DHT22;1071;52.544;13.374;2022-12-18T13:56:31;-0.20;99.90
2130;DHT22;1071;52.544;13.374;2022-12-18T13:59:18;-0.20;99.90
2130;DHT22;1071;52.544;13.374;2022-12-18T14:01:53;-0.20;99.90
2130;DHT22;1071;52.544;13.374;2022-12-18T14:04:25;-0.20;99.90
2130;DHT22;1071;52.544;13.374;2022-12-18T14:06:55;-0.30;99.90
2130;DHT22;1071;52.544;13.374;2022-12-18T14:09:26;-0.30;99.90
2130;DHT22;1071;52.544;13.374;2022-12-18T14:11:55;-0.20;99.90
2130;DHT22;1071;52.544;13.374;2022-12-18T14:14:48;-0.20;99.90
2130;DHT22;1071;52.544;13.374;2022-12-18T14:17:17;-0.30;99.90
2130;DHT22;1071;52.544;13.374;2022-12-18T14:19:46;-0.30;99.90
2130;DHT22;1071;52.544;13.374;2022-12-18T14:22:17;-0.30;99.90
2130;DHT22;1071;52.544;13.374;2022-12-18T14:25:17;-0.30;99.90
2130;DHT22;1071;52.544;13.374;2022-12-18T14:27:51;-0.20;99.90
2130;DHT22;1071;52.544;13.374;2022-12-18T14:30:31;-0.40;99.90
2130;DHT22;1071;52.544;13.374;2022-12-18T14:33:04;-0.40;99.90
2130;DHT22;1071;52.544;13.374;2022-12-18T14:35:33;-0.40;99.90
2130;DHT22;1071;52.544;13.374;2022-12-18T14:38:26;-0.40;99.90
2130;DHT22;1071;52.544;13.374;2022-12-18T14:40:58;-0.30;99.90
2130;DHT22;1071;52.544;13.374;2022-12-18T14:43:28;-0.40;99.90
2130;DHT22;1071;52.544;13.374;2022-12-18T14:45:56;-0.40;99.90
2130;DHT22;1071;52.544;13.374;2022-12-18T14:48:36;-0.40;99.90
2130;DHT22;1071;52.544;13.374;2022-12-18T14:51:15;-0.40;99.90
2130;DHT22;1071;52.544;13.374;2022-12-18T14:53:44;-0.30;99.90
2130;DHT22;1071;52.544;13.374;2022-12-18T14:56:20;-0.30;99.90
2130;DHT22;1071;52.544;13.374;2022-12-18T14:58:48;-0.30;99.90
2130;DHT22;1071;52.544;13.374;2022-12-18T15:01:25;-0.30;99.90
2130;DHT22;1071;52.544;13.374;2022-12-18T15:03:54;-0.30;99.90
2130;DHT22;1071;52.544;13.374;2022-12-18T15:06:30;-0.20;99.90
2130;DHT22;1071;52.544;13.374;2022-12-18T15:09:02;-0.20;99.90
2130;DHT22;1071;52.544;13.374;2022-12-18T15:11:45;-0.10;99.90
2130;DHT22;1071;52.544;13.374;2022-12-18T15:14:23;-0.20;99.90
2130;DHT22;1071;52.544;13.374;2022-12-18T15:16:53;-0.20;99.90
2130;DHT22;1071;52.544;13.374;2022-12-18T15:19:22;-0.20;99.90
2130;DHT22;1071;52.544;13.374;2022-12-18T15:21:49;-0.20;99.90
2130;DHT22;1071;52.544;13.374;2022-12-18T15:24:20;-0.30;99.90
2130;DHT22;1071;52.544;13.374;2022-12-18T15:26:50;-0.20;99.90
2130;DHT22;1071;52.544;13.374;2022-12-18T15:29:29;-0.20;99.90
2130;DHT22;1071;52.544;13.374;2022-12-18T15:32:02;-0.30;99.90
2130;DHT22;1071;52.544;13.374;2022-12-18T15:34:30;-0.20;99.90
2130;DHT22;1071;52.544;13.374;2022-12-18T15:36:59;-0.20;99.90
2130;DHT22;1071;52.544;13.374;2022-12-18T15:39:27;-0.30;99.90
2130;DHT22;1071;52.544;13.374;2022-12-18T15:41:54;-0.40;99.90
2130;DHT22;1071;52.544;13.374;2022-12-18T15:44:47;-0.40;99.90
2130;DHT22;1071;52.544;13.374;2022-12-18T15:47:15;-0.50;99.90
2130;DHT22;1071;52.544;13.374;2022-12-18T15:49:44;-0.40;99.90
2130;DHT22;1071;52.544;13.374;2022-12-18T15:52:13;-0.50;99.90
2130;DHT22;1071;52.544;13.374;2022-12-18T15:54:51;-0.50;99.90
2130;DHT22;1071;52.544;13.374;2022-12-18T15:57:35;-0.60;99.90
2130;DHT22;1071;52.544;13.374;2022-12-18T16:00:03;-0.70;99.90
2130;DHT22;1071;52.544;13.374;2022-12-18T16:02:33;-0.70;99.90
2130;DHT22;1071;52.544;13.374;2022-12-18T16:05:00;-0.70;99.90
2130;DHT22;1071;52.544;13.374;2022-12-18T16:07:27;-0.70;99.90
2130;DHT22;1071;52.544;13.374;2022-12-18T16:09:54;-0.80;99.90
2130;DHT22;1071;52.544;13.374;2022-12-18T16:12:24;-0.80;99.90
2130;DHT22;1071;52.544;13.374;2022-12-18T16:14:52;-0.90;99.90
2130;DHT22;1071;52.544;13.374;2022-12-18T16:17:19;-0.90;99.90
2130;DHT22;1071;52.544;13.374;2022-12-18T16:19:47;-0.90;99.90
2130;DHT22;1071;52.544;13.374;2022-12-18T16:22:20;-0.90;99.90
2130;DHT22;1071;52.544;13.374;2022-12-18T16:24:49;-1.00;99.90
2130;DHT22;1071;52.544;13.374;2022-12-18T16:27:16;-1.10;99.90
2130;DHT22;1071;52.544;13.374;2022-12-18T16:29:43;-1.10;99.90